sensor_id;sensor_type;location;lat;lon;timestamp;P1;durP1;ratioP1;P2;durP2;ratioP2
76846;SDS011;65813;49.546;8.644;2023-05-16T03:47:44;24.13;;;13.63;;
76846;SDS011;65813;49.546;8.644;2023-05-16T03:51:44;20.98;;;11.98;;
76846;SDS011;65813;49.546;8.644;2023-05-16T03:55:45;24.08;;;13.63;;
76846;SDS011;65813;49.546;8.644;2023-05-16T03:59:45;18.48;;;11.02;;
76846;SDS011;65813;49.546;8.644;2023-05-16T04:03:46;17.43;;;9.60;;
76846;SDS011;65813;49.546;8.644;2023-05-16T04:07:46;23.43;;;12.43;;
76846;SDS011;65813;49.546;8.644;2023-05-16T04:11:46;20.13;;;11.93;;
76846;SDS011;65813;49.546;8.644;2023-05-16T04:15:47;21.98;;;12.07;;
76846;SDS011;65813;49.546;8.644;2023-05-16T04:19:47;20.70;;;10.90;;
76846;SDS011;65813;49.546;8.644;2023-05-16T04:23:48;20.03;;;10.97;;
76846;SDS011;65813;49.546;8.644;2023-05-16T04:27:48;18.37;;;10.43;;
76846;SDS011;65813;49.546;8.644;2023-05-16T04:31:48;24.70;;;11.82;;
76846;SDS011;65813;49.546;8.644;2023-05-16T04:35:49;16.73;;;8.40;;
76846;SDS011;65813;49.546;8.644;2023-05-16T04:39:49;18.53;;;9.97;;
76846;SDS011;65813;49.546;8.644;2023-05-16T04:43:50;16.63;;;9.52;;
76846;SDS011;65813;49.546;8.644;2023-05-16T04:47:50;16.35;;;9.88;;
76846;SDS011;65813;49.546;8.644;2023-05-16T04:51:51;23.23;;;9.97;;
76846;SDS011;65813;49.546;8.644;2023-05-16T04:55:51;19.17;;;10.97;;
76846;SDS011;65813;49.546;8.644;2023-05-16T04:59:52;16.70;;;9.50;;
76846;SDS011;65813;49.546;8.644;2023-05-16T05:03:52;19.13;;;9.50;;
76846;SDS011;65813;49.546;8.644;2023-05-16T05:07:52;20.90;;;10.00;;
76846;SDS011;65813;49.546;8.644;2023-05-16T05:11:53;17.17;;;9.20;;
76846;SDS011;65813;49.546;8.644;2023-05-16T05:15:53;22.20;;;11.57;;
76846;SDS011;65813;49.546;8.644;2023-05-16T05:19:53;18.85;;;10.40;;
76846;SDS011;65813;49.546;8.644;2023-05-16T05:23:54;19.27;;;10.57;;
76846;SDS011;65813;49.546;8.644;2023-05-16T05:27:54;17.30;;;9.53;;
76846;SDS011;65813;49.546;8.644;2023-05-16T05:31:54;18.93;;;10.50;;
76846;SDS011;65813;49.546;8.644;2023-05-16T05:35:55;20.83;;;10.97;;
76846;SDS011;65813;49.546;8.644;2023-05-16T05:39:56;21.77;;;10.48;;
76846;SDS011;65813;49.546;8.644;2023-05-16T05:43:56;23.60;;;11.00;;
76846;SDS011;65813;49.546;8.644;2023-05-16T05:47:56;17.97;;;8.40;;
76846;SDS011;65813;49.546;8.644;2023-05-16T05:51:57;18.50;;;9.93;;
76846;SDS011;65813;49.546;8.644;2023-05-16T05:55:57;20.10;;;9.93;;
76846;SDS011;65813;49.546;8.644;2023-05-16T05:59:57;16.30;;;9.40;;
76846;SDS011;65813;49.546;8.644;2023-05-16T06:03:58;22.43;;;12.20;;
76846;SDS011;65813;49.546;8.644;2023-05-16T06:07:58;35.40;;;15.00;;
76846;SDS011;65813;49.546;8.644;2023-05-16T06:11:58;23.23;;;11.17;;
76846;SDS011;65813;49.546;8.644;2023-05-16T06:15:59;25.80;;;12.93;;
76846;SDS011;65813;49.546;8.644;2023-05-16T06:19:59;27.10;;;13.95;;
76846;SDS011;65813;49.546;8.644;2023-05-16T06:23:59;26.60;;;12.63;;
76846;SDS011;65813;49.546;8.644;2023-05-16T06:28:00;20.38;;;10.60;;
76846;SDS011;65813;49.546;8.644;2023-05-16T06:32:00;18.95;;;9.63;;
76846;SDS011;65813;49.546;8.644;2023-05-16T06:36:01;16.07;;;9.07;;
76846;SDS011;65813;49.546;8.644;2023-05-16T06:40:01;19.93;;;8.97;;
76846;SDS011;65813;49.546;8.644;2023-05-16T06:44:02;19.48;;;9.98;;
76846;SDS011;65813;49.546;8.644;2023-05-16T06:48:04;17.70;;;8.40;;
76846;SDS011;65813;49.546;8.644;2023-05-16T06:52:06;20.13;;;8.40;;
76846;SDS011;65813;49.546;8.644;2023-05-16T06:56:06;18.10;;;8.25;;
76846;SDS011;65813;49.546;8.644;2023-05-16T07:00:07;16.70;;;8.37;;
76846;SDS011;65813;49.546;8.644;2023-05-16T07:04:07;15.80;;;8.13;;
76846;SDS011;65813;49.546;8.644;2023-05-16T07:08:08;13.93;;;7.50;;
76846;SDS011;65813;49.546;8.644;2023-05-16T07:12:11;12.20;;;5.82;;
76846;SDS011;65813;49.546;8.644;2023-05-16T07:16:11;11.37;;;5.40;;
76846;SDS011;65813;49.546;8.644;2023-05-16T07:20:12;8.85;;;4.18;;
76846;SDS011;65813;49.546;8.644;2023-05-16T07:24:13;5.40;;;2.75;;
76846;SDS011;65813;49.546;8.644;2023-05-16T07:28:14;4.77;;;2.07;;
76846;SDS011;65813;49.546;8.644;2023-05-16T07:32:14;4.57;;;2.00;;
76846;SDS011;65813;49.546;8.644;2023-05-16T07:36:15;3.83;;;1.98;;
76846;SDS011;65813;49.546;8.644;2023-05-16T07:40:15;4.57;;;1.80;;
76846;SDS011;65813;49.546;8.644;2023-05-16T07:44:17;4.28;;;2.10;;
76846;SDS011;65813;49.546;8.644;2023-05-16T07:48:17;4.40;;;1.83;;
76846;SDS011;65813;49.546;8.644;2023-05-16T07:52:18;4.97;;;2.20;;
76846;SDS011;65813;49.546;8.644;2023-05-16T07:56:18;3.35;;;1.73;;
76846;SDS011;65813;49.546;8.644;2023-05-16T08:00:19;3.40;;;1.50;;
76846;SDS011;65813;49.546;8.644;2023-05-16T08:04:20;2.83;;;1.40;;
76846;SDS011;65813;49.546;8.644;2023-05-16T08:08:20;2.97;;;1.33;;
76846;SDS011;65813;49.546;8.644;2023-05-16T08:12:21;2.70;;;1.23;;
76846;SDS011;65813;49.546;8.644;2023-05-16T08:16:23;3.28;;;1.23;;
76846;SDS011;65813;49.546;8.644;2023-05-16T08:20:24;3.40;;;1.20;;
76846;SDS011;65813;49.546;8.644;2023-05-16T08:24:24;2.13;;;1.13;;
76846;SDS011;65813;49.546;8.644;2023-05-16T08:28:25;1.25;;;0.88;;
76846;SDS011;65813;49.546;8.644;2023-05-16T08:32:25;2.30;;;0.80;;
76846;SDS011;65813;49.546;8.644;2023-05-16T08:36:26;2.03;;;1.00;;
76846;SDS011;65813;49.546;8.644;2023-05-16T08:40:28;2.50;;;1.23;;
76846;SDS011;65813;49.546;8.644;2023-05-16T08:44:28;3.38;;;1.13;;
76846;SDS011;65813;49.546;8.644;2023-05-16T08:48:29;2.22;;;1.05;;
76846;SDS011;65813;49.546;8.644;2023-05-16T08:52:31;3.72;;;1.33;;
76846;SDS011;65813;49.546;8.644;2023-05-16T08:56:33;2.53;;;1.08;;
76846;SDS011;65813;49.546;8.644;2023-05-16T09:00:34;3.28;;;1.27;;
76846;SDS011;65813;49.546;8.644;2023-05-16T09:04:35;1.90;;;1.10;;
76846;SDS011;65813;49.546;8.644;2023-05-16T09:08:37;2.42;;;1.10;;
76846;SDS011;65813;49.546;8.644;2023-05-16T09:12:38;1.60;;;0.90;;
76846;SDS011;65813;49.546;8.644;2023-05-16T09:16:40;1.98;;;1.00;;
76846;SDS011;65813;49.546;8.644;2023-05-16T09:20:45;2.22;;;1.02;;
76846;SDS011;65813;49.546;8.644;2023-05-16T09:24:48;1.75;;;0.90;;
76846;SDS011;65813;49.546;8.644;2023-05-16T09:28:52;1.38;;;0.85;;
76846;SDS011;65813;49.546;8.644;2023-05-16T09:32:53;1.83;;;0.98;;
76846;SDS011;65813;49.546;8.644;2023-05-16T09:36:54;1.77;;;0.73;;
76846;SDS011;65813;49.546;8.644;2023-05-16T09:40:54;2.40;;;0.77;;
76846;SDS011;65813;49.546;8.644;2023-05-16T09:44:55;2.77;;;1.10;;
76846;SDS011;65813;49.546;8.644;2023-05-16T09:48:56;9.30;;;8.38;;
76846;SDS011;65813;49.546;8.644;2023-05-16T09:52:56;1.97;;;0.77;;
76846;SDS011;65813;49.546;8.644;2023-05-16T09:56:57;1.83;;;0.80;;
76846;SDS011;65813;49.546;8.644;2023-05-16T10:00:57;2.55;;;0.85;;
76846;SDS011;65813;49.546;8.644;2023-05-16T10:04:58;1.08;;;0.70;;
76846;SDS011;65813;49.546;8.644;2023-05-16T10:08:58;1.57;;;0.70;;
76846;SDS011;65813;49.546;8.644;2023-05-16T10:13:00;0.85;;;0.73;;
76846;SDS011;65813;49.546;8.644;2023-05-16T10:17:05;1.55;;;0.73;;
76846;SDS011;65813;49.546;8.644;2023-05-16T10:21:07;7.10;;;1.00;;
76846;SDS011;65813;49.546;8.644;2023-05-16T10:29:27;1.02;;;0.82;;
76846;SDS011;65813;49.546;8.644;2023-05-16T10:33:29;1.20;;;0.68;;
76846;SDS011;65813;49.546;8.644;2023-05-16T10:37:30;1.88;;;0.90;;
76846;SDS011;65813;49.546;8.644;2023-05-16T10:41:32;1.75;;;0.80;;
76846;SDS011;65813;49.546;8.644;2023-05-16T10:45:42;1.63;;;0.85;;
76846;SDS011;65813;49.546;8.644;2023-05-16T10:49:42;1.63;;;0.80;;
76846;SDS011;65813;49.546;8.644;2023-05-16T10:53:43;3.80;;;1.00;;
76846;SDS011;65813;49.546;8.644;2023-05-16T10:57:43;2.47;;;1.08;;
76846;SDS011;65813;49.546;8.644;2023-05-16T11:01:44;2.78;;;0.95;;
76846;SDS011;65813;49.546;8.644;2023-05-16T11:05:51;2.20;;;0.90;;
76846;SDS011;65813;49.546;8.644;2023-05-16T11:10:09;1.75;;;1.05;;
76846;SDS011;65813;49.546;8.644;2023-05-16T11:18:24;3.33;;;0.90;;
76846;SDS011;65813;49.546;8.644;2023-05-16T11:22:27;2.50;;;1.00;;
76846;SDS011;65813;49.546;8.644;2023-05-16T11:26:28;1.77;;;1.00;;
76846;SDS011;65813;49.546;8.644;2023-05-16T11:30:30;1.80;;;1.00;;
76846;SDS011;65813;49.546;8.644;2023-05-16T11:34:30;3.13;;;1.13;;
76846;SDS011;65813;49.546;8.644;2023-05-16T11:38:34;2.55;;;1.20;;
76846;SDS011;65813;49.546;8.644;2023-05-16T11:42:39;2.95;;;1.08;;
76846;SDS011;65813;49.546;8.644;2023-05-16T11:46:41;2.50;;;1.20;;
76846;SDS011;65813;49.546;8.644;2023-05-16T11:50:42;2.80;;;1.40;;
76846;SDS011;65813;49.546;8.644;2023-05-16T11:54:46;3.60;;;1.50;;
76846;SDS011;65813;49.546;8.644;2023-05-16T11:58:46;3.90;;;1.50;;
76846;SDS011;65813;49.546;8.644;2023-05-16T12:02:47;3.97;;;1.27;;
76846;SDS011;65813;49.546;8.644;2023-05-16T12:06:56;4.95;;;1.30;;
76846;SDS011;65813;49.546;8.644;2023-05-16T12:10:58;2.83;;;1.60;;
76846;SDS011;65813;49.546;8.644;2023-05-16T12:14:59;2.78;;;1.23;;
76846;SDS011;65813;49.546;8.644;2023-05-16T12:19:00;3.90;;;1.30;;
76846;SDS011;65813;49.546;8.644;2023-05-16T12:23:01;4.63;;;1.55;;
76846;SDS011;65813;49.546;8.644;2023-05-16T12:27:01;3.23;;;1.30;;
76846;SDS011;65813;49.546;8.644;2023-05-16T12:31:02;4.90;;;1.50;;
76846;SDS011;65813;49.546;8.644;2023-05-16T12:35:03;3.92;;;1.60;;
76846;SDS011;65813;49.546;8.644;2023-05-16T12:39:03;4.22;;;1.60;;
76846;SDS011;65813;49.546;8.644;2023-05-16T12:43:18;3.57;;;1.60;;
76846;SDS011;65813;49.546;8.644;2023-05-16T12:47:19;4.75;;;1.55;;
76846;SDS011;65813;49.546;8.644;2023-05-16T12:51:20;4.65;;;1.42;;
76846;SDS011;65813;49.546;8.644;2023-05-16T12:55:21;3.60;;;1.30;;
76846;SDS011;65813;49.546;8.644;2023-05-16T12:59:21;5.18;;;1.52;;
76846;SDS011;65813;49.546;8.644;2023-05-16T13:03:22;3.73;;;1.47;;
76846;SDS011;65813;49.546;8.644;2023-05-16T13:07:22;5.87;;;1.80;;
76846;SDS011;65813;49.546;8.644;2023-05-16T13:11:23;2.70;;;1.20;;
76846;SDS011;65813;49.546;8.644;2023-05-16T13:15:27;4.05;;;1.50;;
76846;SDS011;65813;49.546;8.644;2023-05-16T13:19:27;5.13;;;1.55;;
76846;SDS011;65813;49.546;8.644;2023-05-16T13:23:30;4.97;;;1.63;;
76846;SDS011;65813;49.546;8.644;2023-05-16T13:27:31;3.08;;;1.27;;
76846;SDS011;65813;49.546;8.644;2023-05-16T13:31:32;4.32;;;1.55;;
76846;SDS011;65813;49.546;8.644;2023-05-16T13:35:33;6.63;;;1.70;;
76846;SDS011;65813;49.546;8.644;2023-05-16T13:39:33;5.40;;;1.52;;
76846;SDS011;65813;49.546;8.644;2023-05-16T13:43:33;9.10;;;1.60;;
76846;SDS011;65813;49.546;8.644;2023-05-16T13:47:34;3.07;;;1.30;;
76846;SDS011;65813;49.546;8.644;2023-05-16T13:51:35;4.93;;;1.40;;
76846;SDS011;65813;49.546;8.644;2023-05-16T13:55:35;5.73;;;1.30;;
76846;SDS011;65813;49.546;8.644;2023-05-16T13:59:36;2.70;;;1.30;;
76846;SDS011;65813;49.546;8.644;2023-05-16T14:03:36;5.10;;;1.20;;
76846;SDS011;65813;49.546;8.644;2023-05-16T14:07:36;5.17;;;1.30;;
76846;SDS011;65813;49.546;8.644;2023-05-16T14:11:37;5.00;;;1.67;;
76846;SDS011;65813;49.546;8.644;2023-05-16T14:15:37;4.00;;;1.30;;
76846;SDS011;65813;49.546;8.644;2023-05-16T14:19:38;5.30;;;1.37;;
76846;SDS011;65813;49.546;8.644;2023-05-16T14:23:38;4.13;;;1.02;;
76846;SDS011;65813;49.546;8.644;2023-05-16T14:27:39;4.10;;;1.30;;
76846;SDS011;65813;49.546;8.644;2023-05-16T14:31:39;4.37;;;1.20;;
76846;SDS011;65813;49.546;8.644;2023-05-16T14:35:39;3.57;;;1.30;;
76846;SDS011;65813;49.546;8.644;2023-05-16T14:39:40;4.82;;;1.30;;
76846;SDS011;65813;49.546;8.644;2023-05-16T14:43:42;7.35;;;1.55;;
76846;SDS011;65813;49.546;8.644;2023-05-16T14:47:43;3.35;;;1.10;;
76846;SDS011;65813;49.546;8.644;2023-05-16T14:51:43;4.47;;;1.20;;
76846;SDS011;65813;49.546;8.644;2023-05-16T14:55:48;3.55;;;1.02;;
76846;SDS011;65813;49.546;8.644;2023-05-16T14:59:48;5.68;;;1.13;;
76846;SDS011;65813;49.546;8.644;2023-05-16T15:03:49;4.78;;;1.30;;
76846;SDS011;65813;49.546;8.644;2023-05-16T15:07:49;3.23;;;1.00;;
76846;SDS011;65813;49.546;8.644;2023-05-16T15:11:50;5.90;;;1.30;;
76846;SDS011;65813;49.546;8.644;2023-05-16T15:15:50;4.13;;;1.10;;
76846;SDS011;65813;49.546;8.644;2023-05-16T15:19:50;3.92;;;1.52;;
76846;SDS011;65813;49.546;8.644;2023-05-16T15:23:53;4.50;;;1.17;;
76846;SDS011;65813;49.546;8.644;2023-05-16T15:27:54;4.13;;;1.10;;
76846;SDS011;65813;49.546;8.644;2023-05-16T15:31:55;4.95;;;1.08;;
76846;SDS011;65813;49.546;8.644;2023-05-16T15:35:55;5.60;;;1.10;;
76846;SDS011;65813;49.546;8.644;2023-05-16T15:39:56;4.45;;;1.20;;
76846;SDS011;65813;49.546;8.644;2023-05-16T15:43:57;4.27;;;1.07;;
76846;SDS011;65813;49.546;8.644;2023-05-16T15:47:58;3.60;;;1.10;;
76846;SDS011;65813;49.546;8.644;2023-05-16T15:51:58;3.13;;;1.00;;
76846;SDS011;65813;49.546;8.644;2023-05-16T15:55:59;3.55;;;0.82;;
76846;SDS011;65813;49.546;8.644;2023-05-16T15:59:59;6.55;;;1.15;;
76846;SDS011;65813;49.546;8.644;2023-05-16T16:04:00;5.80;;;0.87;;
76846;SDS011;65813;49.546;8.644;2023-05-16T16:08:00;3.73;;;1.20;;
76846;SDS011;65813;49.546;8.644;2023-05-16T16:12:00;4.67;;;1.20;;
76846;SDS011;65813;49.546;8.644;2023-05-16T16:16:01;4.88;;;1.02;;
76846;SDS011;65813;49.546;8.644;2023-05-16T16:20:01;5.63;;;1.27;;
76846;SDS011;65813;49.546;8.644;2023-05-16T16:24:02;4.05;;;1.00;;
76846;SDS011;65813;49.546;8.644;2023-05-16T16:28:03;5.53;;;1.15;;
76846;SDS011;65813;49.546;8.644;2023-05-16T16:32:03;4.43;;;1.02;;
76846;SDS011;65813;49.546;8.644;2023-05-16T16:36:04;4.97;;;1.50;;
76846;SDS011;65813;49.546;8.644;2023-05-16T16:40:06;3.88;;;0.93;;
76846;SDS011;65813;49.546;8.644;2023-05-16T16:44:08;3.80;;;0.98;;
76846;SDS011;65813;49.546;8.644;2023-05-16T16:48:08;8.30;;;1.20;;
76846;SDS011;65813;49.546;8.644;2023-05-16T16:52:09;3.38;;;0.85;;
76846;SDS011;65813;49.546;8.644;2023-05-16T16:56:10;2.88;;;0.98;;
76846;SDS011;65813;49.546;8.644;2023-05-16T17:00:10;3.67;;;0.93;;
76846;SDS011;65813;49.546;8.644;2023-05-16T17:04:11;3.58;;;1.00;;
76846;SDS011;65813;49.546;8.644;2023-05-16T17:08:11;2.73;;;0.90;;
76846;SDS011;65813;49.546;8.644;2023-05-16T17:12:11;3.03;;;0.73;;
76846;SDS011;65813;49.546;8.644;2023-05-16T17:16:20;2.83;;;0.98;;
76846;SDS011;65813;49.546;8.644;2023-05-16T17:20:21;2.35;;;1.00;;
76846;SDS011;65813;49.546;8.644;2023-05-16T17:24:21;4.23;;;0.90;;
76846;SDS011;65813;49.546;8.644;2023-05-16T17:28:22;3.37;;;0.93;;
76846;SDS011;65813;49.546;8.644;2023-05-16T17:32:22;1.95;;;0.93;;
76846;SDS011;65813;49.546;8.644;2023-05-16T17:36:22;3.50;;;1.10;;
76846;SDS011;65813;49.546;8.644;2023-05-16T17:40:23;4.47;;;0.88;;
76846;SDS011;65813;49.546;8.644;2023-05-16T17:44:23;4.03;;;1.10;;
76846;SDS011;65813;49.546;8.644;2023-05-16T17:48:23;2.50;;;0.90;;
76846;SDS011;65813;49.546;8.644;2023-05-16T17:52:24;2.92;;;0.90;;
76846;SDS011;65813;49.546;8.644;2023-05-16T17:56:24;3.03;;;1.20;;
76846;SDS011;65813;49.546;8.644;2023-05-16T18:00:25;2.53;;;0.90;;
76846;SDS011;65813;49.546;8.644;2023-05-16T18:04:25;3.77;;;1.13;;
76846;SDS011;65813;49.546;8.644;2023-05-16T18:08:25;3.07;;;0.97;;
76846;SDS011;65813;49.546;8.644;2023-05-16T18:12:26;2.95;;;1.08;;
76846;SDS011;65813;49.546;8.644;2023-05-16T18:16:27;4.40;;;1.00;;
76846;SDS011;65813;49.546;8.644;2023-05-16T18:20:29;4.03;;;0.93;;
76846;SDS011;65813;49.546;8.644;2023-05-16T18:24:29;5.50;;;1.00;;
76846;SDS011;65813;49.546;8.644;2023-05-16T18:28:30;4.53;;;1.35;;
76846;SDS011;65813;49.546;8.644;2023-05-16T18:32:31;2.83;;;1.40;;
76846;SDS011;65813;49.546;8.644;2023-05-16T18:36:31;6.03;;;1.83;;
76846;SDS011;65813;49.546;8.644;2023-05-16T18:40:32;7.67;;;1.87;;
76846;SDS011;65813;49.546;8.644;2023-05-16T18:44:32;7.40;;;2.03;;
76846;SDS011;65813;49.546;8.644;2023-05-16T18:48:33;5.20;;;1.30;;
76846;SDS011;65813;49.546;8.644;2023-05-16T18:52:33;8.27;;;1.90;;
76846;SDS011;65813;49.546;8.644;2023-05-16T18:56:34;8.90;;;2.47;;
76846;SDS011;65813;49.546;8.644;2023-05-16T19:00:35;5.43;;;1.80;;
76846;SDS011;65813;49.546;8.644;2023-05-16T19:04:38;7.18;;;1.80;;
76846;SDS011;65813;49.546;8.644;2023-05-16T19:08:39;2.43;;;0.83;;
76846;SDS011;65813;49.546;8.644;2023-05-16T19:12:39;7.67;;;1.13;;
76846;SDS011;65813;49.546;8.644;2023-05-16T19:16:39;4.77;;;1.17;;
76846;SDS011;65813;49.546;8.644;2023-05-16T19:20:40;2.60;;;0.97;;
76846;SDS011;65813;49.546;8.644;2023-05-16T19:24:41;2.65;;;1.02;;
76846;SDS011;65813;49.546;8.644;2023-05-16T19:28:41;4.13;;;1.20;;
76846;SDS011;65813;49.546;8.644;2023-05-16T19:32:41;3.13;;;1.20;;
76846;SDS011;65813;49.546;8.644;2023-05-16T19:36:42;5.53;;;1.10;;
76846;SDS011;65813;49.546;8.644;2023-05-16T19:40:42;3.90;;;1.30;;
76846;SDS011;65813;49.546;8.644;2023-05-16T19:44:43;4.38;;;1.40;;
76846;SDS011;65813;49.546;8.644;2023-05-16T19:48:43;4.17;;;1.33;;
76846;SDS011;65813;49.546;8.644;2023-05-16T19:52:44;3.63;;;1.23;;
76846;SDS011;65813;49.546;8.644;2023-05-16T19:56:44;3.73;;;1.20;;
76846;SDS011;65813;49.546;8.644;2023-05-16T20:00:44;3.83;;;1.27;;
76846;SDS011;65813;49.546;8.644;2023-05-16T20:04:45;4.30;;;1.23;;
76846;SDS011;65813;49.546;8.644;2023-05-16T20:08:46;4.63;;;1.53;;
76846;SDS011;65813;49.546;8.644;2023-05-16T20:12:46;3.77;;;1.30;;
76846;SDS011;65813;49.546;8.644;2023-05-16T20:16:47;3.78;;;1.30;;
76846;SDS011;65813;49.546;8.644;2023-05-16T20:20:47;4.83;;;1.20;;
76846;SDS011;65813;49.546;8.644;2023-05-16T20:24:47;3.27;;;1.10;;
76846;SDS011;65813;49.546;8.644;2023-05-16T20:28:47;1.97;;;0.80;;
76846;SDS011;65813;49.546;8.644;2023-05-16T20:32:48;5.00;;;1.40;;
76846;SDS011;65813;49.546;8.644;2023-05-16T20:36:48;4.30;;;1.10;;
76846;SDS011;65813;49.546;8.644;2023-05-16T20:40:48;5.80;;;1.50;;
76846;SDS011;65813;49.546;8.644;2023-05-16T20:44:49;2.30;;;1.07;;
76846;SDS011;65813;49.546;8.644;2023-05-16T20:48:49;4.80;;;1.20;;
76846;SDS011;65813;49.546;8.644;2023-05-16T20:52:49;3.40;;;1.37;;
76846;SDS011;65813;49.546;8.644;2023-05-16T20:56:50;5.70;;;1.40;;
76846;SDS011;65813;49.546;8.644;2023-05-16T21:00:50;3.97;;;1.43;;
76846;SDS011;65813;49.546;8.644;2023-05-16T21:04:50;4.83;;;1.23;;
76846;SDS011;65813;49.546;8.644;2023-05-16T21:08:51;3.60;;;1.23;;
76846;SDS011;65813;49.546;8.644;2023-05-16T21:12:51;3.10;;;1.20;;
76846;SDS011;65813;49.546;8.644;2023-05-16T21:16:51;3.73;;;1.20;;
76846;SDS011;65813;49.546;8.644;2023-05-16T21:20:52;4.30;;;1.20;;
76846;SDS011;65813;49.546;8.644;2023-05-16T21:24:52;4.50;;;1.30;;
76846;SDS011;65813;49.546;8.644;2023-05-16T21:28:52;3.23;;;1.20;;
76846;SDS011;65813;49.546;8.644;2023-05-16T21:32:53;2.97;;;1.23;;
76846;SDS011;65813;49.546;8.644;2023-05-16T21:36:53;3.67;;;1.20;;
76846;SDS011;65813;49.546;8.644;2023-05-16T21:40:53;3.77;;;1.40;;
76846;SDS011;65813;49.546;8.644;2023-05-16T21:44:56;2.45;;;1.00;;
76846;SDS011;65813;49.546;8.644;2023-05-16T21:48:56;4.20;;;1.00;;
76846;SDS011;65813;49.546;8.644;2023-05-16T21:52:56;3.37;;;1.17;;
76846;SDS011;65813;49.546;8.644;2023-05-16T21:56:57;3.22;;;0.95;;
76846;SDS011;65813;49.546;8.644;2023-05-16T22:00:57;8.10;;;1.47;;
76846;SDS011;65813;49.546;8.644;2023-05-16T22:04:57;3.50;;;1.07;;
76846;SDS011;65813;49.546;8.644;2023-05-16T22:08:58;5.07;;;1.10;;
76846;SDS011;65813;49.546;8.644;2023-05-16T22:12:59;2.35;;;1.10;;
76846;SDS011;65813;49.546;8.644;2023-05-16T22:16:59;3.70;;;1.43;;
76846;SDS011;65813;49.546;8.644;2023-05-16T22:21:00;2.17;;;1.23;;
76846;SDS011;65813;49.546;8.644;2023-05-16T22:25:00;4.35;;;1.55;;
76846;SDS011;65813;49.546;8.644;2023-05-16T22:29:00;2.83;;;1.07;;
76846;SDS011;65813;49.546;8.644;2023-05-16T22:33:01;4.33;;;1.50;;
76846;SDS011;65813;49.546;8.644;2023-05-16T22:37:02;3.90;;;1.13;;
76846;SDS011;65813;49.546;8.644;2023-05-16T22:41:02;3.78;;;1.15;;
76846;SDS011;65813;49.546;8.644;2023-05-16T22:45:03;4.07;;;1.30;;
76846;SDS011;65813;49.546;8.644;2023-05-16T22:49:04;4.82;;;1.30;;
76846;SDS011;65813;49.546;8.644;2023-05-16T22:53:04;3.07;;;1.10;;
76846;SDS011;65813;49.546;8.644;2023-05-16T22:57:04;3.40;;;1.03;;
